sensor_id;sensor_type;location;lat;lon;timestamp;P1;durP1;ratioP1;P2;durP2;ratioP2
18592;SDS011;9426;54.118;17.948;2023-06-10T00:03:42;11.80;;;3.53;;
18592;SDS011;9426;54.118;17.948;2023-06-10T00:09:05;7.73;;;3.57;;
18592;SDS011;9426;54.118;17.948;2023-06-10T00:14:31;8.80;;;3.60;;
18592;SDS011;9426;54.118;17.948;2023-06-10T00:19:56;8.53;;;3.53;;
18592;SDS011;9426;54.118;17.948;2023-06-10T00:25:20;8.90;;;3.30;;
18592;SDS011;9426;54.118;17.948;2023-06-10T00:30:44;7.50;;;2.90;;
18592;SDS011;9426;54.118;17.948;2023-06-10T00:36:09;7.40;;;3.20;;
18592;SDS011;9426;54.118;17.948;2023-06-10T00:41:32;12.80;;;3.43;;
18592;SDS011;9426;54.118;17.948;2023-06-10T00:46:56;8.13;;;3.17;;
18592;SDS011;9426;54.118;17.948;2023-06-10T00:52:21;9.80;;;2.93;;
18592;SDS011;9426;54.118;17.948;2023-06-10T00:57:45;12.20;;;3.47;;
18592;SDS011;9426;54.118;17.948;2023-06-10T01:03:09;8.23;;;2.93;;
18592;SDS011;9426;54.118;17.948;2023-06-10T01:08:35;8.10;;;2.97;;
18592;SDS011;9426;54.118;17.948;2023-06-10T01:14:01;10.50;;;3.20;;
18592;SDS011;9426;54.118;17.948;2023-06-10T01:19:28;10.83;;;3.40;;
18592;SDS011;9426;54.118;17.948;2023-06-10T01:24:54;8.00;;;3.00;;
18592;SDS011;9426;54.118;17.948;2023-06-10T01:30:19;6.13;;;3.30;;
18592;SDS011;9426;54.118;17.948;2023-06-10T01:35:46;8.70;;;3.20;;
18592;SDS011;9426;54.118;17.948;2023-06-10T01:41:12;8.77;;;3.30;;
18592;SDS011;9426;54.118;17.948;2023-06-10T01:46:37;7.07;;;2.80;;
18592;SDS011;9426;54.118;17.948;2023-06-10T01:52:00;18.17;;;4.13;;
18592;SDS011;9426;54.118;17.948;2023-06-10T01:57:28;10.73;;;4.07;;
18592;SDS011;9426;54.118;17.948;2023-06-10T02:02:51;10.80;;;3.30;;
18592;SDS011;9426;54.118;17.948;2023-06-10T02:08:15;6.83;;;3.13;;
18592;SDS011;9426;54.118;17.948;2023-06-10T02:13:40;10.33;;;3.57;;
18592;SDS011;9426;54.118;17.948;2023-06-10T02:19:03;9.37;;;3.27;;
18592;SDS011;9426;54.118;17.948;2023-06-10T02:24:28;10.73;;;2.63;;
18592;SDS011;9426;54.118;17.948;2023-06-10T02:29:53;4.30;;;2.20;;
18592;SDS011;9426;54.118;17.948;2023-06-10T02:35:17;6.37;;;3.00;;
18592;SDS011;9426;54.118;17.948;2023-06-10T02:40:42;12.90;;;3.07;;
18592;SDS011;9426;54.118;17.948;2023-06-10T02:46:08;8.87;;;3.07;;
18592;SDS011;9426;54.118;17.948;2023-06-10T02:51:32;9.93;;;3.00;;
18592;SDS011;9426;54.118;17.948;2023-06-10T02:56:57;6.93;;;3.43;;
18592;SDS011;9426;54.118;17.948;2023-06-10T03:02:24;9.23;;;2.93;;
18592;SDS011;9426;54.118;17.948;2023-06-10T03:07:50;14.47;;;3.73;;
18592;SDS011;9426;54.118;17.948;2023-06-10T03:13:14;6.10;;;3.07;;
18592;SDS011;9426;54.118;17.948;2023-06-10T03:18:40;7.03;;;2.80;;
18592;SDS011;9426;54.118;17.948;2023-06-10T03:24:04;8.57;;;2.93;;
18592;SDS011;9426;54.118;17.948;2023-06-10T03:29:29;10.20;;;2.60;;
18592;SDS011;9426;54.118;17.948;2023-06-10T03:34:55;13.53;;;3.03;;
18592;SDS011;9426;54.118;17.948;2023-06-10T03:40:22;6.93;;;2.87;;
18592;SDS011;9426;54.118;17.948;2023-06-10T03:45:47;6.43;;;2.37;;
18592;SDS011;9426;54.118;17.948;2023-06-10T03:51:13;8.60;;;2.57;;
18592;SDS011;9426;54.118;17.948;2023-06-10T03:56:37;7.83;;;2.67;;
18592;SDS011;9426;54.118;17.948;2023-06-10T04:02:00;14.57;;;3.30;;
18592;SDS011;9426;54.118;17.948;2023-06-10T04:07:28;9.87;;;2.50;;
18592;SDS011;9426;54.118;17.948;2023-06-10T04:12:52;7.90;;;2.77;;
18592;SDS011;9426;54.118;17.948;2023-06-10T04:18:20;13.63;;;2.90;;
18592;SDS011;9426;54.118;17.948;2023-06-10T04:23:49;12.83;;;3.17;;
18592;SDS011;9426;54.118;17.948;2023-06-10T04:29:13;5.73;;;2.33;;
18592;SDS011;9426;54.118;17.948;2023-06-10T04:34:37;6.67;;;2.43;;
18592;SDS011;9426;54.118;17.948;2023-06-10T04:40:03;9.23;;;2.60;;
18592;SDS011;9426;54.118;17.948;2023-06-10T04:45:27;8.33;;;2.53;;
18592;SDS011;9426;54.118;17.948;2023-06-10T04:50:52;9.10;;;2.27;;
18592;SDS011;9426;54.118;17.948;2023-06-10T04:56:18;6.40;;;2.30;;
18592;SDS011;9426;54.118;17.948;2023-06-10T05:01:43;5.70;;;2.53;;
18592;SDS011;9426;54.118;17.948;2023-06-10T05:07:06;5.03;;;2.57;;
18592;SDS011;9426;54.118;17.948;2023-06-10T05:12:31;6.40;;;2.57;;
18592;SDS011;9426;54.118;17.948;2023-06-10T05:17:56;6.07;;;2.40;;
18592;SDS011;9426;54.118;17.948;2023-06-10T05:23:19;12.70;;;2.60;;
18592;SDS011;9426;54.118;17.948;2023-06-10T05:28:44;6.63;;;2.17;;
18592;SDS011;9426;54.118;17.948;2023-06-10T05:34:08;4.33;;;2.30;;
18592;SDS011;9426;54.118;17.948;2023-06-10T05:39:32;7.80;;;2.50;;
18592;SDS011;9426;54.118;17.948;2023-06-10T05:45:00;10.60;;;2.47;;
18592;SDS011;9426;54.118;17.948;2023-06-10T05:50:23;9.57;;;2.47;;
18592;SDS011;9426;54.118;17.948;2023-06-10T05:55:47;6.07;;;2.50;;
18592;SDS011;9426;54.118;17.948;2023-06-10T06:01:12;9.60;;;2.33;;
18592;SDS011;9426;54.118;17.948;2023-06-10T06:06:38;6.57;;;2.20;;
18592;SDS011;9426;54.118;17.948;2023-06-10T06:12:03;6.90;;;2.13;;
18592;SDS011;9426;54.118;17.948;2023-06-10T06:17:28;5.63;;;2.30;;
18592;SDS011;9426;54.118;17.948;2023-06-10T06:22:52;7.23;;;2.63;;
18592;SDS011;9426;54.118;17.948;2023-06-10T06:28:16;6.67;;;2.17;;
18592;SDS011;9426;54.118;17.948;2023-06-10T06:33:41;4.37;;;2.47;;
18592;SDS011;9426;54.118;17.948;2023-06-10T06:39:05;15.27;;;3.30;;
18592;SDS011;9426;54.118;17.948;2023-06-10T06:44:29;5.67;;;2.40;;
18592;SDS011;9426;54.118;17.948;2023-06-10T06:49:54;6.50;;;2.53;;
18592;SDS011;9426;54.118;17.948;2023-06-10T06:55:17;8.63;;;2.80;;
18592;SDS011;9426;54.118;17.948;2023-06-10T07:00:41;7.07;;;2.27;;
18592;SDS011;9426;54.118;17.948;2023-06-10T07:06:07;9.47;;;3.20;;
18592;SDS011;9426;54.118;17.948;2023-06-10T07:11:31;5.27;;;2.60;;
18592;SDS011;9426;54.118;17.948;2023-06-10T07:16:55;8.95;;;2.55;;
18592;SDS011;9426;54.118;17.948;2023-06-10T07:22:20;8.00;;;2.50;;
18592;SDS011;9426;54.118;17.948;2023-06-10T07:27:43;13.05;;;2.85;;
18592;SDS011;9426;54.118;17.948;2023-06-10T07:33:07;5.78;;;2.53;;
18592;SDS011;9426;54.118;17.948;2023-06-10T07:38:33;10.10;;;3.03;;
18592;SDS011;9426;54.118;17.948;2023-06-10T07:43:57;7.85;;;2.83;;
18592;SDS011;9426;54.118;17.948;2023-06-10T07:49:22;7.82;;;2.50;;
18592;SDS011;9426;54.118;17.948;2023-06-10T07:54:47;7.00;;;2.85;;
18592;SDS011;9426;54.118;17.948;2023-06-10T08:00:11;9.20;;;2.60;;
18592;SDS011;9426;54.118;17.948;2023-06-10T08:05:35;10.07;;;2.55;;
18592;SDS011;9426;54.118;17.948;2023-06-10T08:10:59;6.97;;;2.47;;
18592;SDS011;9426;54.118;17.948;2023-06-10T08:16:23;5.95;;;2.60;;
18592;SDS011;9426;54.118;17.948;2023-06-10T08:21:47;6.60;;;2.78;;
18592;SDS011;9426;54.118;17.948;2023-06-10T08:27:12;4.13;;;1.80;;
18592;SDS011;9426;54.118;17.948;2023-06-10T08:32:36;12.90;;;2.38;;
18592;SDS011;9426;54.118;17.948;2023-06-10T08:38:00;6.07;;;2.00;;
18592;SDS011;9426;54.118;17.948;2023-06-10T08:43:27;7.43;;;2.05;;
18592;SDS011;9426;54.118;17.948;2023-06-10T08:48:55;7.43;;;2.20;;
18592;SDS011;9426;54.118;17.948;2023-06-10T08:54:24;4.75;;;2.00;;
18592;SDS011;9426;54.118;17.948;2023-06-10T08:59:50;4.65;;;2.20;;
18592;SDS011;9426;54.118;17.948;2023-06-10T09:05:13;8.70;;;2.63;;
18592;SDS011;9426;54.118;17.948;2023-06-10T09:10:37;9.82;;;2.58;;
18592;SDS011;9426;54.118;17.948;2023-06-10T09:16:03;9.68;;;2.97;;
18592;SDS011;9426;54.118;17.948;2023-06-10T09:21:27;7.65;;;2.30;;
18592;SDS011;9426;54.118;17.948;2023-06-10T09:26:52;5.35;;;2.08;;
18592;SDS011;9426;54.118;17.948;2023-06-10T09:32:26;7.85;;;2.38;;
18592;SDS011;9426;54.118;17.948;2023-06-10T09:37:51;5.43;;;2.30;;
18592;SDS011;9426;54.118;17.948;2023-06-10T09:43:16;12.38;;;2.45;;
18592;SDS011;9426;54.118;17.948;2023-06-10T09:48:42;3.13;;;1.85;;
18592;SDS011;9426;54.118;17.948;2023-06-10T09:54:05;6.00;;;2.00;;
18592;SDS011;9426;54.118;17.948;2023-06-10T09:59:29;4.82;;;2.33;;
18592;SDS011;9426;54.118;17.948;2023-06-10T10:05:03;7.57;;;1.95;;
18592;SDS011;9426;54.118;17.948;2023-06-10T10:10:28;5.15;;;2.13;;
18592;SDS011;9426;54.118;17.948;2023-06-10T10:15:56;9.38;;;2.20;;
18592;SDS011;9426;54.118;17.948;2023-06-10T10:21:31;6.25;;;1.80;;
18592;SDS011;9426;54.118;17.948;2023-06-10T10:27:00;4.88;;;1.70;;
18592;SDS011;9426;54.118;17.948;2023-06-10T10:32:34;5.05;;;1.73;;
18592;SDS011;9426;54.118;17.948;2023-06-10T10:38:07;7.50;;;2.35;;
18592;SDS011;9426;54.118;17.948;2023-06-10T10:43:39;6.28;;;2.42;;
18592;SDS011;9426;54.118;17.948;2023-06-10T10:49:06;7.03;;;2.50;;
18592;SDS011;9426;54.118;17.948;2023-06-10T10:54:35;5.90;;;1.95;;
18592;SDS011;9426;54.118;17.948;2023-06-10T11:00:03;8.73;;;2.20;;
18592;SDS011;9426;54.118;17.948;2023-06-10T11:05:31;8.02;;;2.20;;
18592;SDS011;9426;54.118;17.948;2023-06-10T11:16:49;8.32;;;2.47;;
18592;SDS011;9426;54.118;17.948;2023-06-10T11:22:18;3.75;;;2.20;;
18592;SDS011;9426;54.118;17.948;2023-06-10T11:27:45;5.30;;;2.40;;
18592;SDS011;9426;54.118;17.948;2023-06-10T11:33:24;4.72;;;2.25;;
18592;SDS011;9426;54.118;17.948;2023-06-10T11:38:53;10.57;;;2.05;;
18592;SDS011;9426;54.118;17.948;2023-06-10T11:44:22;5.55;;;2.17;;
18592;SDS011;9426;54.118;17.948;2023-06-10T11:50:01;4.57;;;1.95;;
18592;SDS011;9426;54.118;17.948;2023-06-10T11:55:38;5.75;;;1.85;;
18592;SDS011;9426;54.118;17.948;2023-06-10T12:01:03;7.22;;;2.20;;
18592;SDS011;9426;54.118;17.948;2023-06-10T12:06:28;6.00;;;2.47;;
18592;SDS011;9426;54.118;17.948;2023-06-10T12:12:03;5.05;;;2.13;;
18592;SDS011;9426;54.118;17.948;2023-06-10T12:17:35;3.42;;;2.03;;
18592;SDS011;9426;54.118;17.948;2023-06-10T12:23:07;3.15;;;1.95;;
18592;SDS011;9426;54.118;17.948;2023-06-10T12:28:32;4.75;;;2.08;;
18592;SDS011;9426;54.118;17.948;2023-06-10T12:34:07;3.42;;;2.00;;
18592;SDS011;9426;54.118;17.948;2023-06-10T12:39:32;4.68;;;1.73;;
18592;SDS011;9426;54.118;17.948;2023-06-10T12:44:56;9.05;;;2.08;;
18592;SDS011;9426;54.118;17.948;2023-06-10T12:50:22;11.77;;;2.20;;
18592;SDS011;9426;54.118;17.948;2023-06-10T12:55:49;2.85;;;1.70;;
18592;SDS011;9426;54.118;17.948;2023-06-10T13:01:13;5.13;;;1.85;;
18592;SDS011;9426;54.118;17.948;2023-06-10T13:06:36;5.47;;;1.77;;
18592;SDS011;9426;54.118;17.948;2023-06-10T13:12:02;2.33;;;1.50;;
18592;SDS011;9426;54.118;17.948;2023-06-10T13:17:26;6.63;;;1.60;;
18592;SDS011;9426;54.118;17.948;2023-06-10T13:22:50;5.88;;;1.85;;
18592;SDS011;9426;54.118;17.948;2023-06-10T13:28:15;6.95;;;2.00;;
18592;SDS011;9426;54.118;17.948;2023-06-10T13:33:39;4.97;;;1.70;;
18592;SDS011;9426;54.118;17.948;2023-06-10T13:39:05;3.53;;;1.60;;
18592;SDS011;9426;54.118;17.948;2023-06-10T13:44:30;2.50;;;1.50;;
18592;SDS011;9426;54.118;17.948;2023-06-10T13:49:54;3.63;;;1.40;;
18592;SDS011;9426;54.118;17.948;2023-06-10T13:55:18;4.50;;;2.03;;
18592;SDS011;9426;54.118;17.948;2023-06-10T14:00:43;6.05;;;1.65;;
18592;SDS011;9426;54.118;17.948;2023-06-10T14:06:11;4.43;;;1.60;;
18592;SDS011;9426;54.118;17.948;2023-06-10T14:11:39;5.10;;;1.55;;
18592;SDS011;9426;54.118;17.948;2023-06-10T14:17:05;2.42;;;1.20;;
18592;SDS011;9426;54.118;17.948;2023-06-10T14:22:29;7.18;;;1.50;;
18592;SDS011;9426;54.118;17.948;2023-06-10T14:27:52;5.30;;;1.40;;
18592;SDS011;9426;54.118;17.948;2023-06-10T14:33:17;5.35;;;1.50;;
18592;SDS011;9426;54.118;17.948;2023-06-10T14:38:41;4.82;;;1.58;;
18592;SDS011;9426;54.118;17.948;2023-06-10T14:44:04;4.40;;;1.42;;
18592;SDS011;9426;54.118;17.948;2023-06-10T14:49:29;5.85;;;1.70;;
18592;SDS011;9426;54.118;17.948;2023-06-10T14:54:54;5.72;;;1.60;;
18592;SDS011;9426;54.118;17.948;2023-06-10T15:00:17;6.50;;;1.38;;
18592;SDS011;9426;54.118;17.948;2023-06-10T15:05:45;5.97;;;1.60;;
18592;SDS011;9426;54.118;17.948;2023-06-10T15:11:08;3.13;;;1.70;;
18592;SDS011;9426;54.118;17.948;2023-06-10T15:16:32;8.30;;;1.70;;
18592;SDS011;9426;54.118;17.948;2023-06-10T15:21:57;3.45;;;1.40;;
18592;SDS011;9426;54.118;17.948;2023-06-10T15:27:21;5.35;;;1.40;;
18592;SDS011;9426;54.118;17.948;2023-06-10T15:32:44;8.88;;;1.67;;
18592;SDS011;9426;54.118;17.948;2023-06-10T15:38:09;5.43;;;1.52;;
18592;SDS011;9426;54.118;17.948;2023-06-10T15:43:33;7.82;;;1.85;;
18592;SDS011;9426;54.118;17.948;2023-06-10T15:48:57;8.27;;;1.80;;
18592;SDS011;9426;54.118;17.948;2023-06-10T15:54:22;5.28;;;1.52;;
18592;SDS011;9426;54.118;17.948;2023-06-10T15:59:46;7.57;;;1.70;;
18592;SDS011;9426;54.118;17.948;2023-06-10T16:05:09;6.00;;;1.65;;
18592;SDS011;9426;54.118;17.948;2023-06-10T16:10:34;4.88;;;1.50;;
18592;SDS011;9426;54.118;17.948;2023-06-10T16:15:58;7.28;;;1.73;;
18592;SDS011;9426;54.118;17.948;2023-06-10T16:21:22;3.95;;;1.70;;
18592;SDS011;9426;54.118;17.948;2023-06-10T16:26:48;33.08;;;30.08;;
18592;SDS011;9426;54.118;17.948;2023-06-10T16:32:11;18.92;;;9.18;;
18592;SDS011;9426;54.118;17.948;2023-06-10T16:37:35;174.13;;;124.85;;
18592;SDS011;9426;54.118;17.948;2023-06-10T16:43:01;40.05;;;23.60;;
18592;SDS011;9426;54.118;17.948;2023-06-10T16:48:24;100.07;;;70.00;;
18592;SDS011;9426;54.118;17.948;2023-06-10T16:53:49;560.95;;;399.15;;
18592;SDS011;9426;54.118;17.948;2023-06-10T16:59:15;727.40;;;462.90;;
18592;SDS011;9426;54.118;17.948;2023-06-10T17:04:42;293.38;;;186.45;;
18592;SDS011;9426;54.118;17.948;2023-06-10T17:10:09;24.17;;;11.82;;
18592;SDS011;9426;54.118;17.948;2023-06-10T17:15:35;14.43;;;3.13;;
18592;SDS011;9426;54.118;17.948;2023-06-10T17:20:59;9.80;;;3.15;;
18592;SDS011;9426;54.118;17.948;2023-06-10T17:26:23;7.47;;;2.33;;
18592;SDS011;9426;54.118;17.948;2023-06-10T17:31:49;5.13;;;1.98;;
18592;SDS011;9426;54.118;17.948;2023-06-10T17:37:14;6.55;;;2.88;;
18592;SDS011;9426;54.118;17.948;2023-06-10T17:42:39;6.97;;;3.03;;
18592;SDS011;9426;54.118;17.948;2023-06-10T17:48:05;4.30;;;2.17;;
18592;SDS011;9426;54.118;17.948;2023-06-10T17:53:28;5.43;;;2.87;;
18592;SDS011;9426;54.118;17.948;2023-06-10T17:58:52;4.73;;;2.00;;
18592;SDS011;9426;54.118;17.948;2023-06-10T18:04:17;9.27;;;4.47;;
18592;SDS011;9426;54.118;17.948;2023-06-10T18:09:41;6.03;;;1.70;;
18592;SDS011;9426;54.118;17.948;2023-06-10T18:15:05;6.10;;;2.43;;
18592;SDS011;9426;54.118;17.948;2023-06-10T18:20:31;7.13;;;2.20;;
18592;SDS011;9426;54.118;17.948;2023-06-10T18:25:55;11.03;;;3.03;;
18592;SDS011;9426;54.118;17.948;2023-06-10T18:31:18;6.77;;;2.20;;
18592;SDS011;9426;54.118;17.948;2023-06-10T18:36:44;4.80;;;1.70;;
18592;SDS011;9426;54.118;17.948;2023-06-10T18:42:08;8.90;;;2.13;;
18592;SDS011;9426;54.118;17.948;2023-06-10T18:47:33;6.67;;;2.20;;
18592;SDS011;9426;54.118;17.948;2023-06-10T18:53:03;7.90;;;1.90;;
18592;SDS011;9426;54.118;17.948;2023-06-10T18:58:26;8.07;;;2.30;;
18592;SDS011;9426;54.118;17.948;2023-06-10T19:03:53;11.17;;;1.90;;
18592;SDS011;9426;54.118;17.948;2023-06-10T19:09:18;7.40;;;1.70;;
18592;SDS011;9426;54.118;17.948;2023-06-10T19:14:42;8.30;;;2.00;;
18592;SDS011;9426;54.118;17.948;2023-06-10T19:20:07;8.37;;;2.47;;
18592;SDS011;9426;54.118;17.948;2023-06-10T19:25:33;6.73;;;2.00;;
18592;SDS011;9426;54.118;17.948;2023-06-10T19:30:58;9.33;;;2.27;;
18592;SDS011;9426;54.118;17.948;2023-06-10T19:36:22;7.33;;;2.37;;
18592;SDS011;9426;54.118;17.948;2023-06-10T19:41:47;9.87;;;2.40;;
18592;SDS011;9426;54.118;17.948;2023-06-10T19:47:11;7.53;;;2.33;;
18592;SDS011;9426;54.118;17.948;2023-06-10T19:52:35;4.77;;;2.37;;
18592;SDS011;9426;54.118;17.948;2023-06-10T19:58:00;9.07;;;2.30;;
18592;SDS011;9426;54.118;17.948;2023-06-10T20:03:23;10.80;;;2.23;;
18592;SDS011;9426;54.118;17.948;2023-06-10T20:08:47;8.67;;;2.30;;
18592;SDS011;9426;54.118;17.948;2023-06-10T20:14:12;10.40;;;2.40;;
18592;SDS011;9426;54.118;17.948;2023-06-10T20:19:36;8.57;;;2.27;;
18592;SDS011;9426;54.118;17.948;2023-06-10T20:25:00;5.23;;;2.50;;
18592;SDS011;9426;54.118;17.948;2023-06-10T20:30:25;6.07;;;2.20;;
18592;SDS011;9426;54.118;17.948;2023-06-10T20:35:48;5.93;;;2.63;;
18592;SDS011;9426;54.118;17.948;2023-06-10T20:41:12;4.53;;;2.30;;
18592;SDS011;9426;54.118;17.948;2023-06-10T20:46:38;11.80;;;2.90;;
18592;SDS011;9426;54.118;17.948;2023-06-10T20:52:01;9.67;;;2.70;;
18592;SDS011;9426;54.118;17.948;2023-06-10T20:57:25;10.00;;;2.83;;
18592;SDS011;9426;54.118;17.948;2023-06-10T21:02:51;7.43;;;2.83;;
18592;SDS011;9426;54.118;17.948;2023-06-10T21:08:15;12.03;;;2.80;;
18592;SDS011;9426;54.118;17.948;2023-06-10T21:13:39;12.40;;;2.70;;
18592;SDS011;9426;54.118;17.948;2023-06-10T21:19:04;7.53;;;2.60;;
18592;SDS011;9426;54.118;17.948;2023-06-10T21:24:28;6.67;;;2.50;;
18592;SDS011;9426;54.118;17.948;2023-06-10T21:29:52;6.97;;;2.50;;
18592;SDS011;9426;54.118;17.948;2023-06-10T21:35:17;6.50;;;2.30;;
18592;SDS011;9426;54.118;17.948;2023-06-10T21:40:41;9.03;;;2.90;;
18592;SDS011;9426;54.118;17.948;2023-06-10T21:46:06;8.07;;;2.40;;
18592;SDS011;9426;54.118;17.948;2023-06-10T21:51:31;7.30;;;2.50;;
18592;SDS011;9426;54.118;17.948;2023-06-10T21:56:55;4.80;;;2.27;;
18592;SDS011;9426;54.118;17.948;2023-06-10T22:02:20;4.47;;;2.80;;
18592;SDS011;9426;54.118;17.948;2023-06-10T22:07:45;12.23;;;2.47;;
18592;SDS011;9426;54.118;17.948;2023-06-10T22:13:09;12.50;;;2.60;;
18592;SDS011;9426;54.118;17.948;2023-06-10T22:18:33;6.97;;;2.10;;
18592;SDS011;9426;54.118;17.948;2023-06-10T22:23:58;6.33;;;2.00;;
18592;SDS011;9426;54.118;17.948;2023-06-10T22:29:23;7.50;;;2.23;;
18592;SDS011;9426;54.118;17.948;2023-06-10T22:34:47;6.20;;;1.60;;
18592;SDS011;9426;54.118;17.948;2023-06-10T22:40:12;5.27;;;1.87;;
18592;SDS011;9426;54.118;17.948;2023-06-10T22:45:36;6.37;;;2.10;;
18592;SDS011;9426;54.118;17.948;2023-06-10T22:51:00;6.57;;;2.23;;
18592;SDS011;9426;54.118;17.948;2023-06-10T22:56:25;5.13;;;2.10;;
18592;SDS011;9426;54.118;17.948;2023-06-10T23:01:49;7.63;;;1.63;;
18592;SDS011;9426;54.118;17.948;2023-06-10T23:07:12;9.33;;;1.97;;
18592;SDS011;9426;54.118;17.948;2023-06-10T23:12:38;6.13;;;1.77;;
18592;SDS011;9426;54.118;17.948;2023-06-10T23:18:02;3.80;;;1.60;;
18592;SDS011;9426;54.118;17.948;2023-06-10T23:23:27;8.10;;;1.63;;
18592;SDS011;9426;54.118;17.948;2023-06-10T23:28:56;3.47;;;1.80;;
18592;SDS011;9426;54.118;17.948;2023-06-10T23:34:20;6.20;;;1.70;;
18592;SDS011;9426;54.118;17.948;2023-06-10T23:39:43;4.27;;;1.70;;
18592;SDS011;9426;54.118;17.948;2023-06-10T23:45:10;3.93;;;1.80;;
18592;SDS011;9426;54.118;17.948;2023-06-10T23:50:34;5.10;;;1.70;;
18592;SDS011;9426;54.118;17.948;2023-06-10T23:55:59;6.47;;;1.57;;
